createdAt,value
2024-01-20T00:02:24.866Z,41.88
2024-01-20T00:04:51.766Z,39.35
2024-01-20T00:07:18.598Z,42.58
2024-01-20T00:09:50.235Z,40.15
2024-01-20T00:12:18.123Z,42.53
2024-01-20T00:14:44.869Z,44.35
2024-01-20T00:17:20.912Z,42.50
2024-01-20T00:19:54.104Z,43.45
2024-01-20T00:22:21.987Z,41.50
2024-01-20T00:24:48.881Z,45.97
2024-01-20T00:27:16.273Z,43.15
2024-01-20T00:29:42.932Z,42.88
2024-01-20T00:32:09.793Z,42.53
2024-01-20T00:34:50.576Z,41.33
2024-01-20T00:37:23.199Z,49.53
2024-01-20T00:39:49.690Z,42.47
2024-01-20T00:42:16.132Z,50.60
2024-01-20T00:44:42.991Z,43.13
2024-01-20T00:47:09.557Z,47.15
2024-01-20T00:49:36.215Z,45.17
2024-01-20T00:52:02.916Z,49.80
2024-01-20T00:54:29.317Z,49.20
2024-01-20T00:56:55.910Z,48.33
2024-01-20T00:59:22.392Z,48.78
2024-01-20T01:01:48.823Z,46.53
2024-01-20T01:04:15.224Z,44.30
2024-01-20T01:06:42.329Z,50.00
2024-01-20T01:09:09.258Z,47.10
2024-01-20T01:11:35.727Z,44.83
2024-01-20T01:14:02.320Z,48.28
2024-01-20T01:16:28.833Z,48.75
2024-01-20T01:18:55.230Z,43.78
2024-01-20T01:21:21.839Z,49.30
2024-01-20T01:23:48.257Z,48.92
2024-01-20T01:26:16.163Z,47.05
2024-01-20T01:28:42.724Z,43.97
2024-01-20T01:31:09.498Z,44.95
2024-01-20T01:33:37.595Z,47.30
2024-01-20T01:36:05.023Z,43.50
2024-01-20T01:38:31.762Z,49.25
2024-01-20T01:40:58.788Z,46.63
2024-01-20T01:43:26.354Z,48.53
2024-01-20T01:45:52.971Z,44.95
2024-01-20T01:48:19.654Z,49.00
2024-01-20T01:50:46.273Z,49.60
2024-01-20T01:53:14.800Z,43.17
2024-01-20T01:55:41.971Z,47.25
2024-01-20T01:58:08.543Z,46.83
2024-01-20T02:00:35.213Z,48.47
2024-01-20T02:03:02.420Z,49.88
2024-01-20T02:05:29.035Z,46.08
2024-01-20T02:07:58.361Z,47.47
2024-01-20T02:10:25.166Z,43.88
2024-01-20T02:12:52.785Z,46.47
2024-01-20T02:15:19.494Z,43.33
2024-01-20T02:17:53.626Z,40.95
2024-01-20T02:20:20.852Z,40.63
2024-01-20T02:22:47.364Z,42.03
2024-01-20T02:25:13.869Z,43.08
2024-01-20T02:27:40.531Z,43.08
2024-01-20T02:30:07.830Z,43.85
2024-01-20T02:32:34.518Z,43.80
2024-01-20T02:35:01.120Z,39.85
2024-01-20T02:37:27.553Z,38.20
2024-01-20T02:39:54.070Z,42.92
2024-01-20T02:42:20.574Z,38.50
2024-01-20T02:44:47.036Z,42.67
2024-01-20T02:47:13.510Z,46.30
2024-01-20T02:49:40.379Z,39.45
2024-01-20T02:52:07.038Z,40.55
2024-01-20T02:54:33.781Z,41.58
2024-01-20T02:57:00.525Z,39.95
2024-01-20T02:59:26.937Z,41.80
2024-01-20T03:01:53.490Z,42.25
2024-01-20T03:04:19.973Z,40.10
2024-01-20T03:06:46.452Z,42.83
2024-01-20T03:09:16.270Z,38.72
2024-01-20T03:11:46.094Z,38.53
2024-01-20T03:14:12.933Z,36.45
2024-01-20T03:16:39.589Z,41.78
2024-01-20T03:19:07.361Z,41.42
2024-01-20T03:21:34.951Z,40.95
2024-01-20T03:24:01.956Z,40.45
2024-01-20T03:26:28.670Z,40.17
2024-01-20T03:28:55.072Z,37.80
2024-01-20T03:31:21.583Z,39.13
2024-01-20T03:33:48.081Z,37.05
2024-01-20T03:36:14.728Z,38.17
2024-01-20T03:38:41.146Z,40.15
2024-01-20T03:41:07.604Z,40.72
2024-01-20T03:43:34.033Z,40.30
2024-01-20T03:46:00.489Z,34.95
2024-01-20T03:48:27.245Z,45.25
2024-01-20T03:50:53.795Z,39.72
2024-01-20T03:53:20.228Z,41.47
2024-01-20T03:55:46.714Z,42.20
2024-01-20T03:58:13.141Z,40.55
2024-01-20T04:00:39.558Z,43.72
2024-01-20T04:03:06.129Z,35.88
2024-01-20T04:05:32.603Z,44.25
2024-01-20T04:07:59.007Z,40.58
2024-01-20T04:10:25.487Z,41.38
2024-01-20T04:12:51.899Z,37.35
2024-01-20T04:15:18.405Z,41.05
2024-01-20T04:17:45.135Z,43.13
2024-01-20T04:20:11.915Z,39.70
2024-01-20T04:22:38.314Z,39.80
2024-01-20T04:25:05.283Z,44.40
2024-01-20T04:27:31.829Z,41.53
2024-01-20T04:29:58.320Z,41.30
2024-01-20T04:32:24.843Z,39.35
2024-01-20T04:34:51.236Z,41.63
2024-01-20T04:37:17.696Z,40.40
2024-01-20T04:39:44.312Z,38.50
2024-01-20T04:42:10.791Z,43.30
2024-01-20T04:44:37.256Z,41.25
2024-01-20T04:47:04.498Z,41.30
2024-01-20T04:49:31.062Z,40.00
2024-01-20T04:52:01.512Z,44.05
2024-01-20T04:54:28.380Z,43.75
2024-01-20T04:56:54.904Z,41.72
2024-01-20T04:59:21.308Z,42.65
2024-01-20T05:01:49.399Z,43.00
2024-01-20T05:04:16.157Z,41.10
2024-01-20T05:06:46.674Z,40.80
2024-01-20T05:09:14.511Z,41.17
2024-01-20T05:11:41.099Z,41.90
2024-01-20T05:14:08.700Z,42.35
2024-01-20T05:16:35.399Z,38.40
2024-01-20T05:19:02.964Z,43.47
2024-01-20T05:21:29.621Z,43.38
2024-01-20T05:23:58.098Z,41.88
2024-01-20T05:26:25.115Z,45.55
2024-01-20T05:28:51.551Z,38.78
2024-01-20T05:31:18.048Z,41.60
2024-01-20T05:33:44.673Z,39.30
2024-01-20T05:36:12.824Z,42.88
2024-01-20T05:38:39.866Z,41.10
2024-01-20T05:41:08.298Z,37.72
2024-01-20T05:43:34.807Z,46.42
2024-01-20T05:46:05.968Z,44.25
2024-01-20T05:48:33.936Z,38.10
2024-01-20T05:51:00.473Z,39.55
2024-01-20T05:53:29.079Z,38.20
2024-01-20T05:55:55.746Z,35.72
2024-01-20T05:58:22.315Z,44.15
2024-01-20T06:00:49.105Z,39.45
2024-01-20T06:03:15.666Z,42.90
2024-01-20T06:05:42.194Z,38.13
2024-01-20T06:08:08.813Z,37.53
2024-01-20T06:10:35.285Z,41.38
2024-01-20T06:13:01.712Z,40.72
2024-01-20T06:15:28.437Z,36.92
2024-01-20T06:17:55.050Z,41.13
2024-01-20T06:20:21.537Z,38.85
2024-01-20T06:22:48.077Z,36.50
2024-01-20T06:25:14.592Z,38.42
2024-01-20T06:27:41.055Z,36.42
2024-01-20T06:30:08.179Z,40.88
2024-01-20T06:32:34.746Z,37.53
2024-01-20T06:35:01.178Z,36.67
2024-01-20T06:37:27.734Z,37.92
2024-01-20T06:39:54.134Z,36.95
2024-01-20T06:42:20.598Z,37.42
2024-01-20T06:44:47.019Z,40.22
2024-01-20T06:47:13.672Z,33.72
2024-01-20T06:49:40.990Z,37.60
2024-01-20T06:52:08.181Z,39.95
2024-01-20T06:54:34.796Z,35.30
2024-01-20T06:57:01.336Z,33.28
2024-01-20T06:59:27.764Z,37.90
2024-01-20T07:01:54.166Z,36.35
2024-01-20T07:04:20.633Z,36.28
2024-01-20T07:06:47.213Z,38.88
2024-01-20T07:09:14.745Z,33.40
2024-01-20T07:11:41.491Z,39.22
2024-01-20T07:14:08.182Z,35.08
2024-01-20T07:16:34.650Z,39.90
2024-01-20T07:19:01.238Z,39.67
2024-01-20T07:21:27.900Z,40.28
2024-01-20T07:23:54.391Z,36.28
2024-01-20T07:26:20.920Z,37.17
2024-01-20T07:28:47.557Z,36.50
2024-01-20T07:31:14.044Z,37.08
2024-01-20T07:33:41.957Z,35.88
2024-01-20T07:36:08.711Z,38.53
2024-01-20T07:38:35.146Z,34.70
2024-01-20T07:41:02.379Z,35.25
2024-01-20T07:43:28.981Z,33.25
2024-01-20T07:45:55.575Z,32.05
2024-01-20T07:48:22.750Z,34.75
2024-01-20T07:50:49.724Z,33.88
2024-01-20T07:53:16.243Z,33.13
2024-01-20T07:55:43.529Z,39.80
2024-01-20T07:58:10.036Z,34.78
2024-01-20T08:00:36.761Z,38.95
2024-01-20T08:03:04.254Z,35.35
2024-01-20T08:05:33.640Z,34.88
2024-01-20T08:08:01.701Z,37.85
2024-01-20T08:10:28.124Z,39.60
2024-01-20T08:12:54.577Z,38.20
2024-01-20T08:15:21.301Z,39.85
2024-01-20T08:17:47.859Z,39.53
2024-01-20T08:20:14.393Z,39.05
2024-01-20T08:22:40.802Z,37.20
2024-01-20T08:25:07.684Z,36.53
2024-01-20T08:27:34.217Z,35.65
2024-01-20T08:30:00.891Z,40.17
2024-01-20T08:32:27.406Z,36.63
2024-01-20T08:34:53.934Z,35.10
2024-01-20T08:37:20.355Z,34.90
2024-01-20T08:39:46.736Z,35.75
2024-01-20T08:42:13.210Z,33.95
2024-01-20T08:44:39.869Z,32.90
2024-01-20T08:47:06.378Z,34.97
2024-01-20T08:49:33.032Z,35.83
2024-01-20T08:51:59.428Z,37.08
2024-01-20T08:54:25.861Z,37.20
2024-01-20T08:56:52.349Z,36.97
2024-01-20T08:59:20.582Z,39.85
2024-01-20T09:01:47.091Z,38.30
2024-01-20T09:04:14.777Z,41.60
2024-01-20T09:06:41.417Z,43.22
2024-01-20T09:09:08.038Z,47.55
2024-01-20T09:11:34.577Z,47.10
2024-01-20T09:14:01.013Z,43.70
2024-01-20T09:16:27.429Z,44.20
2024-01-20T09:18:54.094Z,46.50
2024-01-20T09:21:20.676Z,51.20
2024-01-20T09:23:47.190Z,44.72
2024-01-20T09:26:13.636Z,49.25
2024-01-20T09:28:40.062Z,44.63
2024-01-20T09:31:06.500Z,52.97
2024-01-20T09:33:33.164Z,49.10
2024-01-20T09:35:59.780Z,50.03
2024-01-20T09:38:29.468Z,46.72
2024-01-20T09:40:59.752Z,48.03
2024-01-20T09:43:26.541Z,48.30
2024-01-20T09:45:53.838Z,51.00
2024-01-20T09:48:20.677Z,50.40
2024-01-20T09:50:48.657Z,44.72
2024-01-20T09:53:17.345Z,50.30
2024-01-20T09:55:45.777Z,52.53
2024-01-20T09:58:13.509Z,43.33
2024-01-20T10:00:41.858Z,47.63
2024-01-20T10:03:13.206Z,45.00
2024-01-20T10:05:40.034Z,48.50
2024-01-20T10:08:07.350Z,51.22
2024-01-20T10:10:34.877Z,51.40
2024-01-20T10:13:04.516Z,44.85
2024-01-20T10:15:34.284Z,50.15
2024-01-20T10:18:09.292Z,50.70
2024-01-20T10:20:37.562Z,54.53
2024-01-20T10:23:06.314Z,49.67
2024-01-20T10:25:33.103Z,52.25
2024-01-20T10:28:00.163Z,47.92
2024-01-20T10:30:27.301Z,53.00
2024-01-20T10:33:04.359Z,50.83
2024-01-20T10:35:36.468Z,51.03
2024-01-20T10:38:10.274Z,46.10
2024-01-20T10:40:40.011Z,48.03
2024-01-20T10:43:15.045Z,50.28
2024-01-20T10:45:47.735Z,52.13
2024-01-20T10:48:18.365Z,54.30
2024-01-20T10:50:47.551Z,51.78
2024-01-20T10:53:14.219Z,49.50
2024-01-20T10:55:42.110Z,48.78
2024-01-20T10:58:09.756Z,50.65
2024-01-20T11:00:38.713Z,54.00
2024-01-20T11:03:07.125Z,51.15
2024-01-20T11:05:34.036Z,48.35
2024-01-20T11:08:09.737Z,53.17
2024-01-20T11:13:11.470Z,38.63
2024-01-20T11:15:40.658Z,49.30
2024-01-20T11:18:18.515Z,50.55
2024-01-20T11:20:58.176Z,44.38
2024-01-20T11:23:25.726Z,45.70
2024-01-20T11:25:52.467Z,44.75
2024-01-20T11:28:33.128Z,46.60
2024-01-20T11:31:00.739Z,43.28
2024-01-20T11:33:27.789Z,42.58
2024-01-20T11:35:54.593Z,47.47
2024-01-20T11:38:21.970Z,44.50
2024-01-20T11:40:58.932Z,47.45
2024-01-20T11:43:25.360Z,44.42
2024-01-20T11:45:51.831Z,48.08
2024-01-20T11:48:19.459Z,46.30
2024-01-20T11:50:46.147Z,42.70
2024-01-20T11:53:12.757Z,48.17
2024-01-20T11:55:39.200Z,46.60
2024-01-20T11:58:05.604Z,46.60
2024-01-20T12:00:32.250Z,47.35
2024-01-20T12:03:00.394Z,51.58
2024-01-20T12:05:27.009Z,48.60
2024-01-20T12:07:53.688Z,49.40
2024-01-20T12:10:20.228Z,47.88
2024-01-20T12:12:46.650Z,47.47
2024-01-20T12:15:15.998Z,47.80
2024-01-20T12:17:42.609Z,37.85
2024-01-20T12:20:10.374Z,48.70
2024-01-20T12:22:37.031Z,43.50
2024-01-20T12:25:04.094Z,44.20
2024-01-20T12:27:30.832Z,42.08
2024-01-20T12:29:57.322Z,39.38
2024-01-20T12:32:24.641Z,43.45
2024-01-20T12:34:51.158Z,39.53
2024-01-20T12:37:17.676Z,38.60
2024-01-20T12:39:44.380Z,36.90
2024-01-20T12:42:10.888Z,36.17
2024-01-20T12:44:37.554Z,35.35
2024-01-20T12:47:04.226Z,34.80
2024-01-20T12:49:31.750Z,36.22
2024-01-20T12:51:58.450Z,36.28
2024-01-20T12:54:25.128Z,33.10
2024-01-20T12:56:51.788Z,33.92
2024-01-20T12:59:18.195Z,29.63
2024-01-20T13:01:44.851Z,33.47
2024-01-20T13:04:11.358Z,33.78
2024-01-20T13:06:37.817Z,30.65
2024-01-20T13:09:04.770Z,31.25
2024-01-20T13:11:31.714Z,29.52
2024-01-20T13:13:59.736Z,27.88
2024-01-20T13:16:26.510Z,28.55
2024-01-20T13:18:54.272Z,26.50
2024-01-20T13:21:23.253Z,26.50
2024-01-20T13:23:50.351Z,28.27
2024-01-20T13:26:17.850Z,27.80
2024-01-20T13:28:47.038Z,27.33
2024-01-20T13:31:13.516Z,26.67
2024-01-20T13:33:39.981Z,25.98
2024-01-20T13:36:06.820Z,27.02
2024-01-20T13:38:33.580Z,23.33
2024-01-20T13:40:59.987Z,23.38
2024-01-20T13:43:26.546Z,27.33
2024-01-20T13:45:53.035Z,21.77
2024-01-20T13:48:19.628Z,24.27
2024-01-20T13:50:46.200Z,20.85
2024-01-20T13:53:12.623Z,22.15
2024-01-20T13:55:39.072Z,22.83
2024-01-20T13:58:05.493Z,23.25
2024-01-20T14:00:31.950Z,23.33
2024-01-20T14:02:58.490Z,22.35
2024-01-20T14:05:25.032Z,22.02
2024-01-20T14:07:51.466Z,20.10
2024-01-20T14:10:17.980Z,18.23
2024-01-20T14:12:44.460Z,17.38
2024-01-20T14:15:11.414Z,20.50
2024-01-20T14:17:37.969Z,17.55
2024-01-20T14:20:04.818Z,21.38
2024-01-20T14:22:31.359Z,19.83
2024-01-20T14:24:57.769Z,18.48
2024-01-20T14:27:24.239Z,19.20
2024-01-20T14:29:50.864Z,20.45
2024-01-20T14:32:17.299Z,19.38
2024-01-20T14:34:43.769Z,16.08
2024-01-20T14:37:10.422Z,17.52
2024-01-20T14:39:36.895Z,16.30
2024-01-20T14:42:03.710Z,22.20
2024-01-20T14:44:30.184Z,22.30
2024-01-20T14:46:56.587Z,19.80
2024-01-20T14:49:23.761Z,17.23
2024-01-20T14:51:50.411Z,17.80
2024-01-20T14:54:16.957Z,18.67
2024-01-20T14:56:43.384Z,15.73
2024-01-20T14:59:10.237Z,17.42
2024-01-20T15:01:38.040Z,18.05
2024-01-20T15:04:05.976Z,18.77
2024-01-20T15:06:33.132Z,14.60
2024-01-20T15:09:00.124Z,16.60
2024-01-20T15:11:26.832Z,16.88
2024-01-20T15:13:53.384Z,17.95
2024-01-20T15:16:20.064Z,14.73
2024-01-20T15:18:46.575Z,17.33
2024-01-20T15:21:13.140Z,16.85
2024-01-20T15:23:39.608Z,18.77
2024-01-20T15:26:06.139Z,15.18
2024-01-20T15:28:32.578Z,17.25
2024-01-20T15:30:59.020Z,16.73
2024-01-20T15:33:25.538Z,17.83
2024-01-20T15:35:52.118Z,16.98
2024-01-20T15:38:18.975Z,14.57
2024-01-20T15:40:45.420Z,15.68
2024-01-20T15:43:11.913Z,16.42
2024-01-20T15:45:38.868Z,14.13
2024-01-20T15:48:06.078Z,17.35
2024-01-20T15:50:32.639Z,16.33
2024-01-20T15:52:59.068Z,15.55
2024-01-20T15:55:25.515Z,17.83
2024-01-20T15:57:51.965Z,18.88
2024-01-20T16:00:18.462Z,14.70
2024-01-20T16:02:45.199Z,20.92
2024-01-20T16:05:11.681Z,15.15
2024-01-20T16:07:38.131Z,15.75
2024-01-20T16:10:05.037Z,13.27
2024-01-20T16:12:31.443Z,14.45
2024-01-20T16:14:58.978Z,17.65
2024-01-20T16:17:25.527Z,16.95
2024-01-20T16:19:52.046Z,14.52
2024-01-20T16:22:18.467Z,11.32
2024-01-20T16:24:45.081Z,13.10
2024-01-20T16:27:11.536Z,13.40
2024-01-20T16:29:37.960Z,14.35
2024-01-20T16:32:06.560Z,11.48
2024-01-20T16:34:33.187Z,11.70
2024-01-20T16:36:59.733Z,14.45
2024-01-20T16:39:26.273Z,15.05
2024-01-20T16:41:54.471Z,14.55
2024-01-20T16:44:20.943Z,17.08
2024-01-20T16:46:52.344Z,15.13
2024-01-20T16:49:19.977Z,16.10
2024-01-20T16:51:47.583Z,15.07
2024-01-20T16:54:15.160Z,15.70
2024-01-20T16:56:42.127Z,13.85
2024-01-20T16:59:10.404Z,14.05
2024-01-20T17:01:37.921Z,14.15
2024-01-20T17:04:04.777Z,13.85
2024-01-20T17:06:31.854Z,15.60
2024-01-20T17:08:58.468Z,15.23
2024-01-20T17:11:24.917Z,12.95
2024-01-20T17:13:54.320Z,13.98
2024-01-20T17:16:22.049Z,12.93
2024-01-20T17:18:48.599Z,15.65
2024-01-20T17:21:17.143Z,18.85
2024-01-20T17:23:44.699Z,19.40
2024-01-20T17:26:11.867Z,17.60
2024-01-20T17:28:38.370Z,16.45
2024-01-20T17:31:05.834Z,17.75
2024-01-20T17:33:32.702Z,19.38
2024-01-20T17:35:59.267Z,17.58
2024-01-20T17:38:25.771Z,16.55
2024-01-20T17:40:52.311Z,18.55
2024-01-20T17:43:18.797Z,19.70
2024-01-20T17:45:49.066Z,17.60
2024-01-20T17:48:16.494Z,18.52
2024-01-20T17:50:43.069Z,17.42
2024-01-20T17:53:09.470Z,15.43
2024-01-20T17:55:35.862Z,16.55
2024-01-20T17:58:02.462Z,17.95
2024-01-20T18:00:29.709Z,16.63
2024-01-20T18:02:56.298Z,19.48
2024-01-20T18:05:23.570Z,16.40
2024-01-20T18:07:51.076Z,26.40
2024-01-20T18:10:19.826Z,17.70
2024-01-20T18:12:47.149Z,17.05
2024-01-20T18:15:14.587Z,18.75
2024-01-20T18:17:42.750Z,19.67
2024-01-20T18:20:09.345Z,17.10
2024-01-20T18:22:36.004Z,15.35
2024-01-20T18:25:03.081Z,17.52
2024-01-20T18:27:29.547Z,13.82
2024-01-20T18:29:57.035Z,17.20
2024-01-20T18:32:25.077Z,14.68
2024-01-20T18:34:51.731Z,12.93
2024-01-20T18:37:18.305Z,13.93
2024-01-20T18:39:44.914Z,13.68
2024-01-20T18:42:11.444Z,14.07
2024-01-20T18:44:37.908Z,15.02
2024-01-20T18:47:05.453Z,14.30
2024-01-20T18:49:32.098Z,15.38
2024-01-20T18:52:00.828Z,12.80
2024-01-20T18:54:27.378Z,16.65
2024-01-20T18:56:54.460Z,15.15
2024-01-20T18:59:20.959Z,16.48
2024-01-20T19:01:47.871Z,15.20
2024-01-20T19:04:14.331Z,16.52
2024-01-20T19:06:40.909Z,17.00
2024-01-20T19:09:10.314Z,15.02
2024-01-20T19:11:36.757Z,16.75
2024-01-20T19:14:04.971Z,16.42
2024-01-20T19:16:33.540Z,14.23
2024-01-20T19:19:00.126Z,11.80
2024-01-20T19:21:26.633Z,11.63
2024-01-20T19:23:53.289Z,13.20
2024-01-20T19:26:19.695Z,15.27
2024-01-20T19:28:46.660Z,12.40
2024-01-20T19:31:14.392Z,17.45
2024-01-20T19:33:46.407Z,13.68
2024-01-20T19:36:13.192Z,12.27
2024-01-20T19:38:39.960Z,11.85
2024-01-20T19:41:06.382Z,14.25
2024-01-20T19:43:34.726Z,14.57
2024-01-20T19:46:01.198Z,13.52
2024-01-20T19:48:27.802Z,12.70
2024-01-20T19:50:57.504Z,13.95
2024-01-20T19:53:24.365Z,14.30
2024-01-20T19:55:51.398Z,16.33
2024-01-20T19:58:17.873Z,18.90
2024-01-20T20:00:49.086Z,14.40
2024-01-20T20:03:16.020Z,19.80
2024-01-20T20:05:45.468Z,13.20
2024-01-20T20:08:13.494Z,13.02
2024-01-20T20:10:39.963Z,11.10
2024-01-20T20:13:06.375Z,12.80
2024-01-20T20:15:33.152Z,13.55
2024-01-20T20:17:59.734Z,13.13
2024-01-20T20:20:26.309Z,13.98
2024-01-20T20:22:52.858Z,14.23
2024-01-20T20:25:19.468Z,14.23
2024-01-20T20:27:46.015Z,13.75
2024-01-20T20:30:12.920Z,12.73
2024-01-20T20:32:40.643Z,12.68
2024-01-20T20:35:07.498Z,11.93
2024-01-20T20:37:34.085Z,14.38
2024-01-20T20:40:00.525Z,15.98
2024-01-20T20:42:26.987Z,14.18
2024-01-20T20:44:53.892Z,15.75
2024-01-20T20:47:21.260Z,15.43
2024-01-20T20:49:49.347Z,14.60
2024-01-20T20:52:16.131Z,13.95
2024-01-20T20:54:42.574Z,12.23
2024-01-20T20:57:10.137Z,16.88
2024-01-20T20:59:37.499Z,10.65
2024-01-20T21:02:05.926Z,11.82
2024-01-20T21:04:32.566Z,12.63
2024-01-20T21:07:01.164Z,12.43
2024-01-20T21:09:27.737Z,13.02
2024-01-20T21:11:54.212Z,10.40
2024-01-20T21:14:20.930Z,11.70
2024-01-20T21:16:48.122Z,11.95
2024-01-20T21:19:14.848Z,10.63
2024-01-20T21:21:41.616Z,11.23
2024-01-20T21:24:09.769Z,23.70
2024-01-20T21:26:36.326Z,12.10
2024-01-20T21:29:03.002Z,12.00
2024-01-20T21:31:29.487Z,11.38
2024-01-20T21:33:56.097Z,13.13
2024-01-20T21:36:24.060Z,11.23
2024-01-20T21:38:50.634Z,11.07
2024-01-20T21:41:17.054Z,11.98
2024-01-20T21:43:43.509Z,11.57
2024-01-20T21:46:10.988Z,11.88
2024-01-20T21:48:38.015Z,9.90
2024-01-20T21:51:04.906Z,10.07
2024-01-20T21:53:31.361Z,9.07
2024-01-20T21:55:57.774Z,10.65
2024-01-20T21:58:24.226Z,9.52
2024-01-20T22:00:50.720Z,12.07
2024-01-20T22:03:17.234Z,11.85
2024-01-20T22:05:44.120Z,10.10
2024-01-20T22:08:10.612Z,10.73
2024-01-20T22:10:37.150Z,12.27
2024-01-20T22:13:03.703Z,12.27
2024-01-20T22:15:30.199Z,9.48
2024-01-20T22:17:56.769Z,11.48
2024-01-20T22:20:24.189Z,9.77
2024-01-20T22:22:51.104Z,11.95
2024-01-20T22:25:17.678Z,8.85
2024-01-20T22:27:44.136Z,8.68
2024-01-20T22:30:11.502Z,13.75
2024-01-20T22:32:39.282Z,9.63
2024-01-20T22:35:06.539Z,9.57
2024-01-20T22:37:33.534Z,11.65
2024-01-20T22:40:00.260Z,9.93
2024-01-20T22:42:26.783Z,8.95
2024-01-20T22:44:53.205Z,9.85
2024-01-20T22:47:19.666Z,10.52
2024-01-20T22:49:46.194Z,9.10
2024-01-20T22:52:12.691Z,7.60
2024-01-20T22:54:39.436Z,10.93
2024-01-20T22:57:07.501Z,12.95
2024-01-20T22:59:33.916Z,8.57
2024-01-20T23:02:00.383Z,9.40
2024-01-20T23:04:26.936Z,7.93
2024-01-20T23:06:53.662Z,8.23
2024-01-20T23:09:20.532Z,8.80
2024-01-20T23:11:47.108Z,9.13
2024-01-20T23:14:13.742Z,9.98
2024-01-20T23:16:40.254Z,8.98
2024-01-20T23:19:06.792Z,10.20
2024-01-20T23:21:33.262Z,10.18
2024-01-20T23:23:59.748Z,8.43
2024-01-20T23:26:26.553Z,8.15
2024-01-20T23:28:52.932Z,11.50
2024-01-20T23:31:19.427Z,8.73
2024-01-20T23:33:46.034Z,8.65
2024-01-20T23:36:13.510Z,10.93
2024-01-20T23:38:39.951Z,9.65
2024-01-20T23:41:06.632Z,10.70
2024-01-20T23:43:33.029Z,8.43
2024-01-20T23:45:59.499Z,10.88
2024-01-20T23:48:25.984Z,10.25
2024-01-20T23:50:52.370Z,11.13
2024-01-20T23:53:19.044Z,9.40
2024-01-20T23:55:45.611Z,8.88
2024-01-20T23:58:12.078Z,9.95
